Time;durP1;ratioP1;P1;durP2;ratioP2;P2;SDS_P1;SDS_P2;PMS_P1;PMS_P2;Temp;Humidity;BMP_temperature;BMP_pressure;BME280_temperature;BME280_humidity;BME280_pressure;Samples;Min_cycle;Max_cycle;Signal;HPM_P1;HPM_P2
2023/11/01 00:03:06;;;;;;;3.80;1.88;;;;;;;;;;10062747;28;20121;-73
2023/11/01 00:07:57;;;;;;;7.78;2.95;;;;;;;;;;10046295;28;20045;-73
2023/11/01 00:12:49;;;;;;;4.63;2.58;;;;;;;;;;10035923;28;20053;-72
2023/11/01 00:17:41;;;;;;;6.85;2.35;;;;;;;;;;10032365;28;20050;-72
2023/11/01 00:22:33;;;;;;;10.75;2.92;;;;;;;;;;10049036;28;20050;-73
2023/11/01 00:27:25;;;;;;;7.70;2.47;;;;;;;;;;10037593;28;20050;-73
2023/11/01 00:32:17;;;;;;;11.13;4.82;;;;;;;;;;10050352;28;20042;-73
2023/11/01 00:37:09;;;;;;;19.67;14.23;;;;;;;;;;10053684;28;20353;-74
2023/11/01 00:42:01;;;;;;;15.82;4.60;;;;;;;;;;10074299;28;20037;-73
2023/11/01 00:46:53;;;;;;;18.50;8.60;;;;;;;;;;10062919;28;20526;-73
2023/11/01 00:51:45;;;;;;;8.50;4.50;;;;;;;;;;10057355;28;20038;-73
2023/11/01 00:56:37;;;;;;;6.78;2.88;;;;;;;;;;10049650;28;20104;-73
2023/11/01 01:01:28;;;;;;;8.57;4.25;;;;;;;;;;10040106;28;20057;-72
2023/11/01 01:06:20;;;;;;;14.18;4.82;;;;;;;;;;10044165;28;20045;-73
2023/11/01 01:11:12;;;;;;;27.45;24.75;;;;;;;;;;10044572;28;20045;-73
2023/11/01 01:16:04;;;;;;;26.35;17.65;;;;;;;;;;10036720;28;20046;-73
2023/11/01 01:20:57;;;;;;;18.90;11.85;;;;;;;;;;10035496;28;20038;-71
2023/11/01 01:25:49;;;;;;;16.15;8.82;;;;;;;;;;10028411;28;20129;-72
2023/11/01 01:30:41;;;;;;;70.90;45.10;;;;;;;;;;10039630;28;20034;-72
2023/11/01 01:35:33;;;;;;;16.10;9.85;;;;;;;;;;10029358;28;20354;-72
2023/11/01 01:40:25;;;;;;;17.13;12.75;;;;;;;;;;10029534;28;20053;-73
2023/11/01 01:45:17;;;;;;;17.70;10.80;;;;;;;;;;10044348;28;20071;-73
2023/11/01 01:50:09;;;;;;;11.80;6.30;;;;;;;;;;10030113;28;20037;-73
2023/11/01 01:55:03;;;;;;;15.27;8.18;;;;;;;;;;10033464;28;20046;-72
2023/11/01 01:59:57;;;;;;;7.80;4.53;;;;;;;;;;10041895;28;20066;-72
2023/11/01 02:04:49;;;;;;;17.40;6.05;;;;;;;;;;10029194;28;20049;-73
2023/11/01 02:09:41;;;;;;;9.68;5.18;;;;;;;;;;10034383;28;20352;-73
2023/11/01 02:14:33;;;;;;;6.57;4.10;;;;;;;;;;10042658;28;20046;-71
2023/11/01 02:19:25;;;;;;;16.10;5.65;;;;;;;;;;10047102;28;20994;-73
2023/11/01 02:24:17;;;;;;;37.85;21.10;;;;;;;;;;10028256;28;20038;-73
2023/11/01 02:29:11;;;;;;;32.13;24.65;;;;;;;;;;10030428;28;20612;-72
2023/11/01 02:34:08;;;;;;;10.73;6.03;;;;;;;;;;10027215;28;20108;-73
2023/11/01 02:38:59;;;;;;;16.98;5.78;;;;;;;;;;10026192;28;20402;-72
2023/11/01 02:43:51;;;;;;;9.38;3.67;;;;;;;;;;10035608;28;20117;-72
2023/11/01 02:48:43;;;;;;;14.23;4.20;;;;;;;;;;10027223;28;20062;-72
2023/11/01 02:53:35;;;;;;;6.45;2.90;;;;;;;;;;10041782;28;20145;-72
2023/11/01 02:58:28;;;;;;;10.82;4.40;;;;;;;;;;10049594;28;20133;-73
2023/11/01 03:03:20;;;;;;;10.95;4.05;;;;;;;;;;10026557;28;20038;-73
2023/11/01 03:08:12;;;;;;;9.98;3.88;;;;;;;;;;10028171;28;20069;-71
2023/11/01 03:13:04;;;;;;;14.95;3.88;;;;;;;;;;10040570;28;20472;-73
2023/11/01 03:17:57;;;;;;;6.10;3.58;;;;;;;;;;10027261;28;20053;-73
2023/11/01 03:22:49;;;;;;;5.13;3.15;;;;;;;;;;10027619;28;20068;-73
2023/11/01 03:27:40;;;;;;;6.15;3.35;;;;;;;;;;10025523;28;20034;-72
2023/11/01 03:32:33;;;;;;;56.05;32.40;;;;;;;;;;10055273;28;20050;-73
2023/11/01 03:37:25;;;;;;;89.82;62.70;;;;;;;;;;10038619;28;20038;-73
2023/11/01 03:42:17;;;;;;;27.13;15.63;;;;;;;;;;10039825;28;20084;-73
2023/11/01 03:47:09;;;;;;;18.02;10.32;;;;;;;;;;10042535;28;20040;-72
2023/11/01 03:52:02;;;;;;;43.25;27.38;;;;;;;;;;10054225;28;20049;-72
2023/11/01 03:56:54;;;;;;;52.05;33.50;;;;;;;;;;10037421;28;20388;-73
2023/11/01 04:01:46;;;;;;;21.08;13.52;;;;;;;;;;10044971;28;20046;-72
2023/11/01 04:06:38;;;;;;;28.38;19.25;;;;;;;;;;10038046;28;20448;-73
2023/11/01 04:11:30;;;;;;;145.55;104.65;;;;;;;;;;10037893;28;20044;-71
2023/11/01 04:16:22;;;;;;;17.45;9.20;;;;;;;;;;10039594;28;20041;-73
2023/11/01 04:21:15;;;;;;;8.27;5.53;;;;;;;;;;10039483;28;20038;-73
2023/11/01 04:26:07;;;;;;;16.55;8.50;;;;;;;;;;10045007;28;20049;-72
2023/11/01 04:30:59;;;;;;;103.63;65.30;;;;;;;;;;10040598;28;20077;-73
2023/11/01 04:35:54;;;;;;;21.48;16.48;;;;;;;;;;10044910;28;20053;-74
2023/11/01 04:40:47;;;;;;;7.03;3.67;;;;;;;;;;10038519;28;20088;-73
2023/11/01 04:45:39;;;;;;;15.27;12.05;;;;;;;;;;10050040;28;20451;-70
2023/11/01 04:50:31;;;;;;;7.55;4.40;;;;;;;;;;10032518;28;20041;-73
2023/11/01 04:55:24;;;;;;;25.17;17.00;;;;;;;;;;10030635;28;20132;-71
2023/11/01 05:00:16;;;;;;;16.52;5.75;;;;;;;;;;10031411;28;20053;-73
2023/11/01 05:05:08;;;;;;;8.80;5.65;;;;;;;;;;10035653;28;20526;-73
2023/11/01 05:10:02;;;;;;;25.52;18.10;;;;;;;;;;10030816;28;21220;-74
2023/11/01 05:14:54;;;;;;;51.15;29.63;;;;;;;;;;10029590;28;20046;-75
2023/11/01 05:19:46;;;;;;;31.38;24.00;;;;;;;;;;10032791;28;20052;-74
2023/11/01 05:24:38;;;;;;;11.13;6.30;;;;;;;;;;10031751;28;20480;-73
2023/11/01 05:29:31;;;;;;;10.35;3.13;;;;;;;;;;10034595;28;20530;-73
2023/11/01 05:34:23;;;;;;;9.45;3.03;;;;;;;;;;10030446;28;20096;-75
2023/11/01 05:39:15;;;;;;;8.63;3.15;;;;;;;;;;10029481;28;20034;-75
2023/11/01 05:44:07;;;;;;;7.68;2.70;;;;;;;;;;10030307;28;20050;-76
2023/11/01 05:48:59;;;;;;;5.75;3.15;;;;;;;;;;10030011;28;20054;-74
2023/11/01 05:53:51;;;;;;;10.05;2.97;;;;;;;;;;10030973;28;20057;-75
2023/11/01 05:58:43;;;;;;;5.15;3.22;;;;;;;;;;10030210;28;20060;-74
2023/11/01 06:03:35;;;;;;;8.38;4.15;;;;;;;;;;10035456;28;20536;-73
2023/11/01 06:08:27;;;;;;;12.93;3.45;;;;;;;;;;10034921;28;20046;-71
2023/11/01 06:13:20;;;;;;;7.35;3.53;;;;;;;;;;10028600;28;20066;-69
2023/11/01 06:18:11;;;;;;;7.43;3.28;;;;;;;;;;10037971;28;20049;-70
2023/11/01 06:23:09;;;;;;;9.13;3.45;;;;;;;;;;10027666;28;20045;-71
2023/11/01 06:28:01;;;;;;;6.13;3.70;;;;;;;;;;10028898;28;20045;-70
2023/11/01 06:32:53;;;;;;;6.38;3.22;;;;;;;;;;10038847;28;20053;-69
2023/11/01 06:37:47;;;;;;;6.75;2.95;;;;;;;;;;10032453;28;20042;-70
2023/11/01 06:42:39;;;;;;;5.25;2.67;;;;;;;;;;10025806;28;20361;-72
2023/11/01 06:47:31;;;;;;;8.18;3.58;;;;;;;;;;10037721;28;20449;-69
2023/11/01 06:52:23;;;;;;;9.93;3.88;;;;;;;;;;10044926;28;20050;-71
2023/11/01 06:57:15;;;;;;;11.77;4.20;;;;;;;;;;10025893;28;20037;-71
2023/11/01 07:02:07;;;;;;;13.02;6.75;;;;;;;;;;10037179;28;20054;-72
2023/11/01 07:06:59;;;;;;;20.00;7.88;;;;;;;;;;10062852;28;20097;-69
2023/11/01 07:11:51;;;;;;;10.45;5.85;;;;;;;;;;10054786;28;20063;-71
2023/11/01 07:16:45;;;;;;;16.98;8.35;;;;;;;;;;10049440;28;20395;-74
2023/11/01 07:21:39;;;;;;;11.55;4.07;;;;;;;;;;10062792;28;20045;-70
2023/11/01 07:26:31;;;;;;;8.43;3.97;;;;;;;;;;10056630;28;20050;-71
2023/11/01 07:31:23;;;;;;;10.30;4.63;;;;;;;;;;10061668;28;20046;-72
2023/11/01 07:36:15;;;;;;;8.10;3.05;;;;;;;;;;10062926;28;20041;-72
2023/11/01 07:41:07;;;;;;;8.85;4.40;;;;;;;;;;10062169;28;20484;-71
2023/11/01 07:46:00;;;;;;;9.25;6.10;;;;;;;;;;10050870;28;20050;-70
2023/11/01 07:50:51;;;;;;;12.10;5.85;;;;;;;;;;10060124;28;20055;-72
2023/11/01 07:55:43;;;;;;;11.52;4.35;;;;;;;;;;10060576;28;20050;-71
2023/11/01 08:00:36;;;;;;;13.35;6.15;;;;;;;;;;10061464;28;20053;-72
2023/11/01 08:05:27;;;;;;;16.60;13.55;;;;;;;;;;10052174;28;20553;-72
2023/11/01 08:10:21;;;;;;;15.98;14.13;;;;;;;;;;10057639;28;20041;-72
2023/11/01 08:15:13;;;;;;;21.00;13.65;;;;;;;;;;10047726;28;20056;-71
2023/11/01 08:20:06;;;;;;;21.77;13.35;;;;;;;;;;10055231;28;20048;-72
2023/11/01 08:24:58;;;;;;;22.55;16.13;;;;;;;;;;10018540;28;20053;-72
2023/11/01 08:45:42;;;;;;;21.92;14.88;;;;;;;;;;10138476;28;20381;-72
2023/11/01 08:50:33;;;;;;;18.77;12.07;;;;;;;;;;10138271;28;20049;-72
2023/11/01 08:55:25;;;;;;;27.20;14.30;;;;;;;;;;10128932;28;20049;-70
2023/11/01 09:00:17;;;;;;;16.67;10.65;;;;;;;;;;10136854;28;20072;-71
2023/11/01 09:05:10;;;;;;;13.75;9.75;;;;;;;;;;10120300;28;20057;-71
2023/11/01 09:10:02;;;;;;;28.05;14.55;;;;;;;;;;10085934;28;20059;-72
2023/11/01 09:14:53;;;;;;;29.88;20.45;;;;;;;;;;10097872;28;20052;-72
2023/11/01 09:19:45;;;;;;;23.15;13.98;;;;;;;;;;10094629;28;20106;-72
2023/11/01 09:24:37;;;;;;;25.50;13.95;;;;;;;;;;10087282;28;20041;-72
2023/11/01 09:29:29;;;;;;;21.58;12.88;;;;;;;;;;10090447;28;20068;-75
2023/11/01 09:34:23;;;;;;;17.63;10.45;;;;;;;;;;10089773;28;20494;-73
2023/11/01 09:39:15;;;;;;;12.27;9.25;;;;;;;;;;10093871;28;20046;-72
2023/11/01 09:44:17;;;;;;;15.40;8.57;;;;;;;;;;10095410;28;20434;-73
2023/11/01 09:49:09;;;;;;;13.05;8.38;;;;;;;;;;10097766;28;20037;-73
2023/11/01 09:54:08;;;;;;;14.60;9.63;;;;;;;;;;10087528;28;20057;-72
2023/11/01 09:59:00;;;;;;;13.05;9.30;;;;;;;;;;10070069;28;20050;-72
2023/11/01 10:03:53;;;;;;;17.50;9.75;;;;;;;;;;10069869;28;20160;-72
2023/11/01 10:08:45;;;;;;;13.10;9.27;;;;;;;;;;10070474;28;20072;-73
2023/11/01 10:13:37;;;;;;;15.68;9.00;;;;;;;;;;10069549;28;20041;-70
2023/11/01 10:18:29;;;;;;;18.73;10.98;;;;;;;;;;10068538;28;20211;-71
2023/11/01 10:23:26;;;;;;;19.45;12.00;;;;;;;;;;10068919;28;20056;-71
2023/11/01 10:28:18;;;;;;;25.00;17.52;;;;;;;;;;10056686;28;20509;-74
2023/11/01 10:33:10;;;;;;;26.13;15.18;;;;;;;;;;10068036;28;20128;-72
2023/11/01 10:38:02;;;;;;;20.27;14.05;;;;;;;;;;10065010;28;20033;-71
2023/11/01 10:42:57;;;;;;;29.63;18.23;;;;;;;;;;10064372;28;20122;-71
2023/11/01 10:47:51;;;;;;;25.67;18.10;;;;;;;;;;10056432;28;20072;-71
2023/11/01 10:52:43;;;;;;;24.38;16.65;;;;;;;;;;10061241;28;20034;-71
2023/11/01 10:57:35;;;;;;;20.83;13.20;;;;;;;;;;10065076;28;20103;-71
2023/11/01 11:03:00;;;;;;;32.40;14.27;;;;;;;;;;10063190;28;20049;-71
2023/11/01 11:07:54;;;;;;;27.30;12.07;;;;;;;;;;10059426;28;20064;-71
2023/11/01 11:13:17;;;;;;;23.20;13.15;;;;;;;;;;10064349;28;20042;-71
2023/11/01 11:18:09;;;;;;;15.18;12.20;;;;;;;;;;10063604;28;20396;-71
2023/11/01 11:23:01;;;;;;;23.50;14.00;;;;;;;;;;10059556;28;20045;-71
2023/11/01 11:27:53;;;;;;;16.95;14.05;;;;;;;;;;10063260;28;20391;-71
2023/11/01 11:32:45;;;;;;;18.30;12.45;;;;;;;;;;10063720;28;20050;-71
2023/11/01 11:37:37;;;;;;;15.88;12.57;;;;;;;;;;10062549;28;20038;-71
2023/11/01 11:42:41;;;;;;;17.45;11.48;;;;;;;;;;10060924;28;20060;-73
2023/11/01 11:47:33;;;;;;;15.55;12.00;;;;;;;;;;10054822;28;20057;-74
2023/11/01 11:52:25;;;;;;;16.30;11.63;;;;;;;;;;10058074;28;20104;-75
2023/11/01 11:57:19;;;;;;;18.88;12.82;;;;;;;;;;10063215;28;20044;-75
2023/11/01 12:02:15;;;;;;;13.65;12.20;;;;;;;;;;10060665;28;20077;-75
2023/11/01 12:07:07;;;;;;;20.98;12.70;;;;;;;;;;10060578;28;20042;-74
2023/11/01 12:12:09;;;;;;;14.30;10.75;;;;;;;;;;10061958;28;20061;-75
2023/11/01 12:17:05;;;;;;;17.10;11.15;;;;;;;;;;10063039;28;20140;-75
2023/11/01 12:21:59;;;;;;;13.57;9.32;;;;;;;;;;10059890;28;20045;-75
2023/11/01 12:27:10;;;;;;;19.05;10.38;;;;;;;;;;10062500;28;20376;-75
2023/11/01 12:32:06;;;;;;;15.15;9.10;;;;;;;;;;10058964;28;20073;-75
2023/11/01 12:37:12;;;;;;;17.27;11.82;;;;;;;;;;10057947;28;20041;-75
2023/11/01 12:42:40;;;;;;;15.30;11.43;;;;;;;;;;10052688;28;20096;-77
2023/11/01 12:47:52;;;;;;;28.80;18.33;;;;;;;;;;10057326;28;20045;-77
2023/11/01 12:52:46;;;;;;;19.35;12.88;;;;;;;;;;10061232;28;20038;-75
2023/11/01 12:57:42;;;;;;;24.70;13.85;;;;;;;;;;10060576;28;20122;-76
2023/11/01 13:02:35;;;;;;;30.48;20.90;;;;;;;;;;10058355;28;20471;-73
2023/11/01 13:07:30;;;;;;;18.48;14.50;;;;;;;;;;10057954;28;20041;-75
2023/11/01 13:12:22;;;;;;;19.20;13.07;;;;;;;;;;10060538;28;20068;-75
2023/11/01 13:17:13;;;;;;;25.92;15.60;;;;;;;;;;10061624;28;20045;-74
2023/11/01 13:22:05;;;;;;;23.60;16.67;;;;;;;;;;10060549;28;20132;-75
2023/11/01 13:26:57;;;;;;;29.25;22.70;;;;;;;;;;10060296;28;20045;-74
2023/11/01 13:31:49;;;;;;;28.60;25.35;;;;;;;;;;10066754;28;20068;-75
2023/11/01 13:36:44;;;;;;;27.52;22.65;;;;;;;;;;10065742;28;20128;-75
2023/11/01 13:41:36;;;;;;;32.13;20.75;;;;;;;;;;10068131;28;20164;-74
2023/11/01 13:46:28;;;;;;;23.92;19.02;;;;;;;;;;10069271;28;20037;-75
2023/11/01 13:51:20;;;;;;;25.15;20.60;;;;;;;;;;10065367;28;20198;-75
2023/11/01 13:56:12;;;;;;;26.55;20.10;;;;;;;;;;10068812;28;20045;-75
2023/11/01 14:01:04;;;;;;;20.92;17.27;;;;;;;;;;10067558;28;20407;-75
2023/11/01 14:05:56;;;;;;;30.65;19.38;;;;;;;;;;10066442;28;20479;-75
2023/11/01 14:10:49;;;;;;;25.90;19.65;;;;;;;;;;10066484;28;20139;-74
2023/11/01 14:15:43;;;;;;;33.60;21.05;;;;;;;;;;10066381;28;20494;-74
2023/11/01 14:20:35;;;;;;;22.58;19.38;;;;;;;;;;10066508;28;20186;-74
2023/11/01 14:25:27;;;;;;;21.48;17.55;;;;;;;;;;10066442;28;20060;-75
2023/11/01 14:30:19;;;;;;;27.13;17.63;;;;;;;;;;10065590;28;20056;-75
2023/11/01 14:35:11;;;;;;;26.77;20.33;;;;;;;;;;10065888;28;20054;-75
2023/11/01 14:40:06;;;;;;;23.50;17.17;;;;;;;;;;10065386;28;20383;-75
2023/11/01 14:44:58;;;;;;;22.90;18.15;;;;;;;;;;10056633;28;20077;-74
2023/11/01 14:49:50;;;;;;;22.80;18.55;;;;;;;;;;10064508;28;20187;-75
2023/11/01 14:54:42;;;;;;;21.55;15.73;;;;;;;;;;10054540;28;20065;-75
2023/11/01 14:59:34;;;;;;;21.17;16.00;;;;;;;;;;10063952;28;20041;-75
2023/11/01 15:04:26;;;;;;;19.40;16.33;;;;;;;;;;10065088;28;20053;-74
2023/11/01 15:09:20;;;;;;;20.63;16.63;;;;;;;;;;10060489;28;20042;-76
2023/11/01 15:14:13;;;;;;;26.02;22.73;;;;;;;;;;10063639;28;20052;-73
2023/11/01 15:19:05;;;;;;;28.52;18.60;;;;;;;;;;10056310;28;20040;-73
2023/11/01 15:23:58;;;;;;;25.00;20.70;;;;;;;;;;10046716;28;20602;-71
2023/11/01 15:28:50;;;;;;;34.22;28.55;;;;;;;;;;10050080;28;20046;-72
2023/11/01 15:33:42;;;;;;;26.63;19.60;;;;;;;;;;10052541;28;20052;-75
2023/11/01 15:38:34;;;;;;;30.15;18.00;;;;;;;;;;10038004;28;20064;-74
2023/11/01 15:43:26;;;;;;;15.18;11.52;;;;;;;;;;10071154;28;20454;-73
2023/11/01 15:48:21;;;;;;;24.67;17.05;;;;;;;;;;10061883;28;20122;-71
2023/11/01 15:53:13;;;;;;;15.68;13.48;;;;;;;;;;10047261;28;20041;-71
2023/11/01 15:58:05;;;;;;;15.85;10.73;;;;;;;;;;10048901;28;20049;-71
2023/11/01 16:02:59;;;;;;;9.70;7.10;;;;;;;;;;10066605;28;20107;-70
2023/11/01 16:07:51;;;;;;;7.75;5.25;;;;;;;;;;10078273;28;20041;-71
2023/11/01 16:12:43;;;;;;;11.48;7.80;;;;;;;;;;10063318;28;20064;-68
2023/11/01 16:17:35;;;;;;;7.53;5.13;;;;;;;;;;10072559;28;20047;-70
2023/11/01 16:22:28;;;;;;;3.05;2.13;;;;;;;;;;10095094;28;20367;-69
2023/11/01 16:27:21;;;;;;;18.23;11.80;;;;;;;;;;10087844;28;20053;-71
2023/11/01 16:32:15;;;;;;;9.93;3.63;;;;;;;;;;10097147;28;20044;-69
2023/11/01 16:37:06;;;;;;;4.10;2.92;;;;;;;;;;10090976;28;20092;-70
2023/11/01 16:41:58;;;;;;;17.48;13.35;;;;;;;;;;10093002;28;20114;-69
2023/11/01 16:46:50;;;;;;;8.85;5.30;;;;;;;;;;10063056;28;20140;-71
2023/11/01 16:51:42;;;;;;;14.88;8.43;;;;;;;;;;10052910;28;20054;-71
2023/11/01 16:56:37;;;;;;;15.98;8.77;;;;;;;;;;10048327;28;20045;-71
2023/11/01 17:01:32;;;;;;;5.38;4.25;;;;;;;;;;10031849;28;20044;-69
2023/11/01 17:06:25;;;;;;;11.32;9.48;;;;;;;;;;10028440;28;20080;-71
2023/11/01 17:11:18;;;;;;;8.52;7.70;;;;;;;;;;10016486;28;20042;-72
2023/11/01 17:16:10;;;;;;;6.47;5.38;;;;;;;;;;10019823;28;20132;-69
2023/11/01 17:21:02;;;;;;;5.85;4.03;;;;;;;;;;10011795;28;20042;-71
2023/11/01 17:25:56;;;;;;;2.95;2.53;;;;;;;;;;10005952;28;20053;-69
2023/11/01 17:30:52;;;;;;;4.00;2.80;;;;;;;;;;10019762;28;20042;-71
2023/11/01 17:35:45;;;;;;;5.10;4.05;;;;;;;;;;10023161;28;20461;-71
2023/11/01 17:40:37;;;;;;;4.50;3.20;;;;;;;;;;10036954;28;20041;-72
2023/11/01 17:45:29;;;;;;;6.10;2.92;;;;;;;;;;10037245;28;20050;-72
2023/11/01 17:50:21;;;;;;;4.25;2.30;;;;;;;;;;10031884;28;20534;-72
2023/11/01 17:55:16;;;;;;;3.17;2.30;;;;;;;;;;10053136;28;20042;-70
2023/11/01 18:00:08;;;;;;;3.55;3.00;;;;;;;;;;10070703;28;20407;-72
2023/11/01 18:05:04;;;;;;;8.82;2.33;;;;;;;;;;10038993;28;20137;-72
2023/11/01 18:09:57;;;;;;;2.83;2.35;;;;;;;;;;10058469;28;20038;-71
2023/11/01 18:14:49;;;;;;;11.10;9.27;;;;;;;;;;10030954;28;20049;-72
2023/11/01 18:19:45;;;;;;;5.20;2.70;;;;;;;;;;10030127;28;20060;-72
2023/11/01 18:24:41;;;;;;;5.57;2.45;;;;;;;;;;10030854;28;20046;-71
2023/11/01 18:29:33;;;;;;;1.80;1.40;;;;;;;;;;10029004;28;20085;-72
2023/11/01 18:34:25;;;;;;;4.40;2.47;;;;;;;;;;10030050;28;20046;-71
2023/11/01 18:39:22;;;;;;;2.45;2.03;;;;;;;;;;10028648;28;20464;-71
2023/11/01 18:44:26;;;;;;;4.88;3.47;;;;;;;;;;10028381;28;20058;-71
2023/11/01 18:49:50;;;;;;;5.80;3.10;;;;;;;;;;10027943;28;20117;-71
2023/11/01 18:54:45;;;;;;;2.13;1.30;;;;;;;;;;10028107;28;20129;-70
2023/11/01 18:59:37;;;;;;;4.45;1.65;;;;;;;;;;10027548;28;20041;-71
2023/11/01 19:04:31;;;;;;;7.97;2.95;;;;;;;;;;10027958;28;20048;-71
2023/11/01 19:09:23;;;;;;;19.65;9.55;;;;;;;;;;10027178;28;20073;-72
2023/11/01 19:14:15;;;;;;;14.43;7.10;;;;;;;;;;10027530;28;20096;-70
2023/11/01 19:19:07;;;;;;;4.45;2.63;;;;;;;;;;10025220;28;20069;-71
2023/11/01 19:24:01;;;;;;;5.85;4.40;;;;;;;;;;10026814;28;20116;-71
2023/11/01 19:28:53;;;;;;;15.50;12.77;;;;;;;;;;10022633;28;20054;-70
2023/11/01 19:33:45;;;;;;;16.27;12.85;;;;;;;;;;10023565;28;20060;-66
2023/11/01 19:38:37;;;;;;;20.05;14.82;;;;;;;;;;10023792;28;20089;-69
2023/11/01 19:43:29;;;;;;;9.40;6.82;;;;;;;;;;10022751;28;20136;-67
2023/11/01 19:48:26;;;;;;;29.35;20.02;;;;;;;;;;10022951;28;20056;-69
2023/11/01 19:53:18;;;;;;;8.07;6.57;;;;;;;;;;10024165;28;20356;-70
2023/11/01 19:58:10;;;;;;;3.83;3.53;;;;;;;;;;10026409;28;20385;-71
2023/11/01 20:03:04;;;;;;;11.95;7.30;;;;;;;;;;10026192;28;20069;-70
2023/11/01 20:07:56;;;;;;;5.18;3.55;;;;;;;;;;10026233;28;20128;-71
2023/11/01 20:12:47;;;;;;;4.53;3.40;;;;;;;;;;10026466;28;20140;-71
2023/11/01 20:17:39;;;;;;;4.20;3.28;;;;;;;;;;10024298;28;20042;-71
2023/11/01 20:22:32;;;;;;;5.35;3.55;;;;;;;;;;10021510;28;20042;-71
2023/11/01 20:27:23;;;;;;;2.83;2.00;;;;;;;;;;10022974;28;20053;-70
2023/11/01 20:32:16;;;;;;;2.85;1.55;;;;;;;;;;10021811;28;20392;-69
2023/11/01 20:37:08;;;;;;;5.78;2.67;;;;;;;;;;10010596;28;20060;-66
2023/11/01 20:42:00;;;;;;;8.35;2.45;;;;;;;;;;10008867;28;20084;-67
2023/11/01 20:46:53;;;;;;;4.68;3.03;;;;;;;;;;10021540;28;20136;-69
2023/11/01 20:51:45;;;;;;;4.82;3.40;;;;;;;;;;10039912;28;20049;-69
2023/11/01 20:56:39;;;;;;;3.55;2.42;;;;;;;;;;10033890;28;20396;-68
2023/11/01 21:01:31;;;;;;;2.40;1.98;;;;;;;;;;10031914;28;20050;-67
2023/11/01 21:06:23;;;;;;;4.47;1.90;;;;;;;;;;10018107;28;20053;-66
2023/11/01 21:11:14;;;;;;;6.38;2.92;;;;;;;;;;10062529;28;20472;-69
2023/11/01 21:16:06;;;;;;;4.32;2.22;;;;;;;;;;10063849;28;20472;-69
2023/11/01 21:21:00;;;;;;;2.80;1.67;;;;;;;;;;10062614;28;20045;-68
2023/11/01 21:25:52;;;;;;;2.45;1.63;;;;;;;;;;10061753;28;20052;-69
2023/11/01 21:30:44;;;;;;;2.75;1.90;;;;;;;;;;10062658;28;20103;-69
2023/11/01 21:35:36;;;;;;;3.17;1.73;;;;;;;;;;10061338;28;20041;-68
2023/11/01 21:40:29;;;;;;;2.97;2.08;;;;;;;;;;10057606;28;20073;-68
2023/11/01 21:45:22;;;;;;;2.55;2.03;;;;;;;;;;10053643;28;20041;-68
2023/11/01 21:50:17;;;;;;;4.03;1.90;;;;;;;;;;10062393;28;20051;-68
2023/11/01 21:55:11;;;;;;;4.75;1.92;;;;;;;;;;10068731;28;20052;-69
2023/11/01 22:00:05;;;;;;;5.13;2.53;;;;;;;;;;10067812;28;20042;-68
2023/11/01 22:05:03;;;;;;;3.92;3.45;;;;;;;;;;10054187;28;20045;-69
2023/11/01 22:09:56;;;;;;;5.00;2.90;;;;;;;;;;10021460;28;20038;-68
2023/11/01 22:14:50;;;;;;;4.45;3.38;;;;;;;;;;10028678;28;20077;-68
2023/11/01 22:19:43;;;;;;;5.80;3.35;;;;;;;;;;10028251;28;20050;-69
2023/11/01 22:38:04;;;;;;;5.60;2.00;;;;;;;;;;10028001;28;20076;-68
2023/11/01 22:42:56;;;;;;;2.60;2.38;;;;;;;;;;10027128;28;20060;-68
2023/11/01 22:47:49;;;;;;;14.35;4.38;;;;;;;;;;10027716;28;20373;-68
2023/11/01 22:52:41;;;;;;;3.55;1.85;;;;;;;;;;10027151;28;20046;-68
2023/11/01 22:57:33;;;;;;;25.75;12.98;;;;;;;;;;10027332;28;20048;-68
2023/11/01 23:02:25;;;;;;;9.60;6.25;;;;;;;;;;10027090;28;20050;-69
2023/11/01 23:07:17;;;;;;;5.25;3.20;;;;;;;;;;10028544;28;20046;-68
2023/11/01 23:12:11;;;;;;;8.27;3.80;;;;;;;;;;10029381;28;20050;-68
2023/11/01 23:17:04;;;;;;;9.10;4.95;;;;;;;;;;10029554;28;20432;-69
2023/11/01 23:21:56;;;;;;;5.85;3.38;;;;;;;;;;10029433;28;20464;-68
2023/11/01 23:26:59;;;;;;;7.53;4.15;;;;;;;;;;10029197;28;20050;-71
2023/11/01 23:31:56;;;;;;;38.53;16.63;;;;;;;;;;10026669;28;20042;-71
2023/11/01 23:36:48;;;;;;;48.08;27.52;;;;;;;;;;10032445;28;20628;-70
2023/11/01 23:41:46;;;;;;;29.35;18.50;;;;;;;;;;10022704;28;20437;-68
2023/11/01 23:46:38;;;;;;;5.32;4.40;;;;;;;;;;10022939;28;20400;-67
2023/11/01 23:51:36;;;;;;;4.22;3.72;;;;;;;;;;10025528;28;20134;-68
2023/11/01 23:56:33;;;;;;;18.60;8.60;;;;;;;;;;10024227;28;20050;-68
